createdAt,value
2018-04-06T00:00:04.086Z,100923.67
2018-04-06T00:02:31.466Z,100922.34
2018-04-06T00:04:58.846Z,100918.52
2018-04-06T00:07:26.232Z,100917.95
2018-04-06T00:09:53.610Z,100919.27
2018-04-06T00:12:27.818Z,100923.03
2018-04-06T00:14:55.189Z,100924.47
2018-04-06T00:17:22.655Z,100922.78
2018-04-06T00:19:50.115Z,100921.81
2018-04-06T00:22:18.016Z,100918.73
2018-04-06T00:24:45.386Z,100927.05
2018-04-06T00:27:12.794Z,100929.60
2018-04-06T00:29:40.173Z,100931.17
2018-04-06T00:32:07.594Z,100928.33
2018-04-06T00:34:34.985Z,100929.77
2018-04-06T00:37:02.372Z,100937.59
2018-04-06T00:39:30.122Z,100946.58
2018-04-06T00:41:57.598Z,100936.88
2018-04-06T00:44:24.983Z,100935.45
2018-04-06T00:46:52.365Z,100928.31
2018-04-06T00:49:19.764Z,100931.22
2018-04-06T00:51:47.164Z,100936.36
2018-04-06T00:54:14.538Z,100935.52
2018-04-06T00:56:41.921Z,100931.46
2018-04-06T00:59:09.305Z,100925.99
2018-04-06T01:01:36.693Z,100922.95
2018-04-06T01:04:04.102Z,100928.42
2018-04-06T01:06:31.573Z,100933.64
2018-04-06T01:08:59.014Z,100932.88
2018-04-06T01:11:26.410Z,100921.57
2018-04-06T01:13:53.816Z,100925.34
2018-04-06T01:16:21.217Z,100928.12
2018-04-06T01:18:48.625Z,100926.39
2018-04-06T01:21:16.017Z,100920.70
2018-04-06T01:23:43.473Z,100916.16
2018-04-06T01:26:10.910Z,100915.55
2018-04-06T01:28:38.339Z,100923.96
2018-04-06T01:31:05.805Z,100920.23
2018-04-06T01:33:33.200Z,100920.23
2018-04-06T01:36:00.656Z,100927.91
2018-04-06T01:38:28.463Z,100927.84
2018-04-06T01:40:55.833Z,100932.22
2018-04-06T01:43:23.210Z,100929.42
2018-04-06T01:45:50.601Z,100928.56
2018-04-06T01:48:18.010Z,100930.02
2018-04-06T01:50:45.485Z,100922.44
2018-04-06T01:53:12.874Z,100928.78
2018-04-06T01:55:40.266Z,100931.55
2018-04-06T01:58:07.637Z,100930.52
2018-04-06T02:00:35.079Z,100919.09
2018-04-06T02:03:02.448Z,100918.09
2018-04-06T02:05:30.624Z,100912.97
2018-04-06T02:07:58.065Z,100910.66
2018-04-06T02:10:25.453Z,100905.30
2018-04-06T02:12:52.838Z,100911.34
2018-04-06T02:15:20.245Z,100912.14
2018-04-06T02:17:47.616Z,100902.51
2018-04-06T02:20:15.013Z,100905.27
2018-04-06T02:22:42.384Z,100911.08
2018-04-06T02:25:09.813Z,100904.70
2018-04-06T02:27:37.198Z,100906.91
2018-04-06T02:30:04.617Z,100905.19
2018-04-06T02:32:32.029Z,100906.84
2018-04-06T02:34:59.589Z,100911.02
2018-04-06T02:37:27.063Z,100906.31
2018-04-06T02:39:54.502Z,100904.94
2018-04-06T02:42:21.917Z,100909.68
2018-04-06T02:44:49.314Z,100908.04
2018-04-06T02:47:16.697Z,100900.28
2018-04-06T02:49:44.082Z,100906.54
2018-04-06T02:52:11.549Z,100906.08
2018-04-06T02:54:38.946Z,100891.95
2018-04-06T02:57:06.331Z,100894.84
2018-04-06T02:59:33.734Z,100896.22
2018-04-06T03:02:01.124Z,100899.13
2018-04-06T03:04:28.543Z,100901.80
2018-04-06T03:06:55.914Z,100911.87
2018-04-06T03:09:23.376Z,100903.77
2018-04-06T03:11:50.747Z,100902.61
2018-04-06T03:14:18.181Z,100900.64
2018-04-06T03:16:45.600Z,100906.02
2018-04-06T03:19:13.047Z,100909.19
2018-04-06T03:21:40.484Z,100911.81
2018-04-06T03:24:07.890Z,100917.05
2018-04-06T03:26:35.284Z,100913.86
2018-04-06T03:29:02.705Z,100919.67
2018-04-06T03:31:31.147Z,100925.03
2018-04-06T03:33:58.564Z,100927.69
2018-04-06T03:36:25.992Z,100931.50
2018-04-06T03:38:53.636Z,100925.23
2018-04-06T03:41:21.066Z,100923.27
2018-04-06T03:43:48.481Z,100922.73
2018-04-06T03:46:15.913Z,100928.78
2018-04-06T03:48:43.293Z,100927.80
2018-04-06T03:51:10.693Z,100930.37
2018-04-06T03:53:38.133Z,100932.91
2018-04-06T03:56:05.538Z,100924.38
2018-04-06T03:58:32.904Z,100933.06
2018-04-06T04:01:01.266Z,100925.18
2018-04-06T04:03:28.637Z,100929.77
2018-04-06T04:05:56.040Z,100923.00
2018-04-06T04:08:23.453Z,100929.11
2018-04-06T04:10:50.888Z,100923.98
2018-04-06T04:13:18.269Z,100918.37
2018-04-06T04:15:45.680Z,100921.51
2018-04-06T04:18:13.358Z,100923.73
2018-04-06T04:20:40.768Z,100919.34
2018-04-06T04:23:08.172Z,100924.98
2018-04-06T04:25:35.553Z,100920.64
2018-04-06T04:28:02.992Z,100918.61
2018-04-06T04:30:31.445Z,100917.37
2018-04-06T04:32:58.839Z,100911.34
2018-04-06T04:35:26.254Z,100908.76
2018-04-06T04:37:53.641Z,100909.04
2018-04-06T04:40:21.016Z,100908.85
2018-04-06T04:42:48.439Z,100904.97
2018-04-06T04:45:15.915Z,100901.50
2018-04-06T04:47:43.333Z,100902.66
2018-04-06T04:50:10.700Z,100905.68
2018-04-06T04:52:38.091Z,100912.12
2018-04-06T04:55:05.573Z,100910.20
2018-04-06T04:57:32.988Z,100908.86
2018-04-06T05:00:00.384Z,100904.78
2018-04-06T05:02:27.917Z,100913.48
2018-04-06T05:04:55.314Z,100922.08
2018-04-06T05:07:22.720Z,100913.23
2018-04-06T05:09:50.092Z,100915.35
2018-04-06T05:12:17.524Z,100916.22
2018-04-06T05:14:44.934Z,100922.73
2018-04-06T05:17:12.721Z,100927.88
2018-04-06T05:19:40.236Z,100925.19
2018-04-06T05:22:07.649Z,100926.36
2018-04-06T05:24:35.155Z,100929.42
2018-04-06T05:27:03.466Z,100931.86
2018-04-06T05:29:31.724Z,100925.25
2018-04-06T05:31:59.131Z,100929.59
2018-04-06T05:34:26.513Z,100933.67
2018-04-06T05:36:53.918Z,100928.18
2018-04-06T05:39:21.348Z,100929.58
2018-04-06T05:41:48.750Z,100928.31
2018-04-06T05:44:16.154Z,100931.20
2018-04-06T05:46:43.570Z,100925.34
2018-04-06T05:49:10.982Z,100926.02
2018-04-06T05:51:38.383Z,100928.47
2018-04-06T05:54:05.815Z,100922.55
2018-04-06T05:56:33.193Z,100916.73
2018-04-06T05:59:00.723Z,100927.40
2018-04-06T06:01:28.202Z,100931.59
2018-04-06T06:03:55.580Z,100932.51
2018-04-06T06:06:22.981Z,100941.28
2018-04-06T06:08:50.371Z,100944.48
2018-04-06T06:11:17.762Z,100941.19
2018-04-06T06:13:45.238Z,100939.31
2018-04-06T06:16:12.660Z,100943.73
2018-04-06T06:18:40.142Z,100954.14
2018-04-06T06:21:07.579Z,100959.95
2018-04-06T06:23:34.999Z,100956.04
2018-04-06T06:26:02.404Z,100959.96
2018-04-06T06:28:30.186Z,100961.92
2018-04-06T06:30:57.580Z,100958.31
2018-04-06T06:33:25.258Z,100961.05
2018-04-06T06:35:52.639Z,100963.66
2018-04-06T06:38:20.112Z,100961.23
2018-04-06T06:40:47.630Z,100970.45
2018-04-06T06:43:15.061Z,100968.66
2018-04-06T06:45:42.598Z,100959.23
2018-04-06T06:48:10.121Z,100963.34
2018-04-06T06:50:37.603Z,100959.31
2018-04-06T06:53:04.994Z,100955.25
2018-04-06T06:55:32.395Z,100954.16
2018-04-06T06:57:59.787Z,100948.78
2018-04-06T07:00:27.244Z,100950.45
2018-04-06T07:02:54.633Z,100952.92
2018-04-06T07:05:22.020Z,100952.53
2018-04-06T07:07:49.443Z,100949.25
2018-04-06T07:10:16.910Z,100941.14
2018-04-06T07:12:44.391Z,100942.77
2018-04-06T07:15:11.755Z,100936.48
2018-04-06T07:17:39.150Z,100940.80
2018-04-06T07:20:06.538Z,100940.19
2018-04-06T07:22:33.936Z,100935.20
2018-04-06T07:25:01.361Z,100936.91
2018-04-06T07:27:28.884Z,100926.65
2018-04-06T07:29:56.325Z,100935.40
2018-04-06T07:32:23.748Z,100929.00
2018-04-06T07:34:51.154Z,100920.81
2018-04-06T07:37:18.623Z,100919.17
2018-04-06T07:39:46.102Z,100912.33
2018-04-06T07:42:13.541Z,100917.16
2018-04-06T07:44:40.930Z,100915.29
2018-04-06T07:47:08.356Z,100912.92
2018-04-06T07:49:35.755Z,100919.08
2018-04-06T07:52:03.226Z,100914.53
2018-04-06T07:54:30.797Z,100910.75
2018-04-06T07:56:58.537Z,100914.97
2018-04-06T07:59:25.930Z,100914.65
2018-04-06T08:01:53.403Z,100909.52
2018-04-06T08:04:20.793Z,100908.59
2018-04-06T08:06:48.302Z,100914.86
2018-04-06T08:09:15.698Z,100912.86
2018-04-06T08:11:43.288Z,100899.64
2018-04-06T08:14:10.791Z,100898.74
2018-04-06T08:16:38.196Z,100886.73
2018-04-06T08:19:05.602Z,100891.64
2018-04-06T08:21:32.981Z,100890.84
2018-04-06T08:24:00.397Z,100890.37
2018-04-06T08:26:27.828Z,100887.72
2018-04-06T08:28:55.206Z,100889.19
2018-04-06T08:31:22.657Z,100884.52
2018-04-06T08:33:50.060Z,100884.61
2018-04-06T08:36:17.465Z,100881.83
2018-04-06T08:38:44.873Z,100869.41
2018-04-06T08:41:12.257Z,100868.41
2018-04-06T08:43:39.672Z,100865.33
2018-04-06T08:46:07.041Z,100867.43
2018-04-06T08:48:35.298Z,100863.58
2018-04-06T08:51:02.764Z,100861.34
2018-04-06T08:53:30.221Z,100864.54
2018-04-06T08:55:57.616Z,100860.24
2018-04-06T08:58:25.020Z,100852.48
2018-04-06T09:00:52.396Z,100858.45
2018-04-06T09:03:19.779Z,100848.25
2018-04-06T09:05:47.163Z,100838.56
2018-04-06T09:08:14.595Z,100839.50
2018-04-06T09:10:42.907Z,100830.03
2018-04-06T09:13:10.317Z,100839.73
2018-04-06T09:15:37.721Z,100835.93
2018-04-06T09:18:05.152Z,100833.79
2018-04-06T09:20:32.675Z,100839.34
2018-04-06T09:23:00.096Z,100826.41
2018-04-06T09:25:27.486Z,100822.23
2018-04-06T09:27:54.861Z,100813.09
2018-04-06T09:30:22.289Z,100809.92
2018-04-06T09:32:57.233Z,100809.31
2018-04-06T09:35:30.198Z,100811.41
2018-04-06T09:37:57.796Z,100810.23
2018-04-06T09:40:25.185Z,100799.67
2018-04-06T09:42:52.579Z,100805.84
2018-04-06T09:45:19.972Z,100798.36
2018-04-06T09:47:47.408Z,100792.66
2018-04-06T09:50:14.853Z,100789.13
2018-04-06T09:52:42.222Z,100779.55
2018-04-06T09:55:09.639Z,100780.77
2018-04-06T09:57:37.017Z,100767.21
2018-04-06T10:00:04.453Z,100773.95
2018-04-06T10:02:37.366Z,100782.30
2018-04-06T10:05:04.818Z,100773.95
2018-04-06T10:07:32.217Z,100768.22
2018-04-06T10:09:59.617Z,100764.96
2018-04-06T10:12:27.014Z,100760.20
2018-04-06T10:14:54.798Z,100758.59
2018-04-06T10:17:22.317Z,100757.64
2018-04-06T10:19:49.690Z,100767.10
2018-04-06T10:22:17.288Z,100758.98
2018-04-06T10:24:44.683Z,100751.85
2018-04-06T10:27:12.071Z,100758.87
2018-04-06T10:29:39.468Z,100749.09
2018-04-06T10:32:06.854Z,100746.23
2018-04-06T10:34:34.289Z,100739.34
2018-04-06T10:37:01.713Z,100734.30
2018-04-06T10:39:29.111Z,100732.12
2018-04-06T10:41:56.524Z,100726.64
2018-04-06T10:44:23.924Z,100723.72
2018-04-06T10:46:51.496Z,100731.98
2018-04-06T10:49:18.920Z,100729.41
2018-04-06T10:51:46.341Z,100725.59
2018-04-06T10:54:14.073Z,100715.88
2018-04-06T10:56:41.466Z,100712.00
2018-04-06T10:59:08.885Z,100708.15
2018-04-06T11:01:36.271Z,100701.11
2018-04-06T11:04:03.795Z,100696.04
2018-04-06T11:06:31.239Z,100685.92
2018-04-06T11:08:58.696Z,100691.34
2018-04-06T11:11:26.249Z,100676.47
2018-04-06T11:13:53.629Z,100677.41
2018-04-06T11:16:21.041Z,100670.41
2018-04-06T11:18:48.700Z,100663.98
2018-04-06T11:21:16.081Z,100656.89
2018-04-06T11:23:43.602Z,100660.48
2018-04-06T11:26:10.982Z,100653.17
2018-04-06T11:28:38.373Z,100643.92
2018-04-06T11:31:05.830Z,100637.25
2018-04-06T11:33:33.221Z,100636.64
2018-04-06T11:36:00.646Z,100641.94
2018-04-06T11:38:28.039Z,100628.78
2018-04-06T11:40:55.425Z,100626.08
2018-04-06T11:43:22.855Z,100634.42
2018-04-06T11:45:50.246Z,100626.68
2018-04-06T11:48:17.862Z,100620.52
2018-04-06T11:50:45.550Z,100622.80
2018-04-06T11:53:12.916Z,100620.11
2018-04-06T11:55:40.310Z,100610.82
2018-04-06T11:58:07.950Z,100608.50
2018-04-06T12:00:35.412Z,100601.58
2018-04-06T12:03:02.961Z,100596.59
2018-04-06T12:05:30.431Z,100598.66
2018-04-06T12:07:58.417Z,100589.21
2018-04-06T12:10:25.826Z,100586.84
2018-04-06T12:12:53.283Z,100576.82
2018-04-06T12:15:20.675Z,100575.64
2018-04-06T12:17:49.072Z,100565.63
2018-04-06T12:20:16.579Z,100564.34
2018-04-06T12:22:44.162Z,100555.61
2018-04-06T12:25:11.597Z,100552.85
2018-04-06T12:27:39.050Z,100560.06
2018-04-06T12:30:06.460Z,100543.18
2018-04-06T12:32:33.901Z,100527.00
2018-04-06T12:35:01.357Z,100521.84
2018-04-06T12:37:28.842Z,100521.41
2018-04-06T12:39:56.237Z,100517.38
2018-04-06T12:42:23.699Z,100511.30
2018-04-06T12:44:51.083Z,100499.23
2018-04-06T12:47:18.622Z,100505.80
2018-04-06T12:49:46.116Z,100500.48
2018-04-06T12:52:13.517Z,100513.14
2018-04-06T12:54:41.237Z,100513.79
2018-04-06T12:57:08.633Z,100503.30
2018-04-06T12:59:36.107Z,100497.19
2018-04-06T13:02:03.484Z,100500.52
2018-04-06T13:04:31.965Z,100493.69
2018-04-06T13:06:59.357Z,100492.40
2018-04-06T13:09:26.777Z,100490.56
2018-04-06T13:11:54.157Z,100491.59
2018-04-06T13:14:22.513Z,100483.98
2018-04-06T13:16:50.974Z,100471.84
2018-04-06T13:19:18.831Z,100473.38
2018-04-06T13:21:46.267Z,100469.48
2018-04-06T13:24:15.772Z,100469.31
2018-04-06T13:26:43.197Z,100471.15
2018-04-06T13:29:10.647Z,100454.73
2018-04-06T13:31:38.029Z,100451.22
2018-04-06T13:34:05.413Z,100444.42
2018-04-06T13:36:32.821Z,100448.20
2018-04-06T13:39:00.231Z,100444.41
2018-04-06T13:41:27.694Z,100432.75
2018-04-06T13:43:55.125Z,100425.97
2018-04-06T13:46:22.600Z,100417.41
2018-04-06T13:48:50.764Z,100430.93
2018-04-06T13:51:18.187Z,100423.73
2018-04-06T13:53:48.052Z,100412.67
2018-04-06T13:56:15.826Z,100407.78
2018-04-06T13:58:43.688Z,100406.72
2018-04-06T14:01:11.186Z,100396.34
2018-04-06T14:03:38.549Z,100398.97
2018-04-06T14:06:05.946Z,100388.87
2018-04-06T14:08:33.506Z,100390.98
2018-04-06T14:11:00.896Z,100387.22
2018-04-06T14:13:28.282Z,100380.75
2018-04-06T14:15:55.705Z,100373.89
2018-04-06T14:18:23.304Z,100362.66
2018-04-06T14:20:50.662Z,100360.91
2018-04-06T14:23:18.099Z,100363.53
2018-04-06T14:25:52.299Z,100357.95
2018-04-06T14:28:24.778Z,100362.80
2018-04-06T14:30:52.218Z,100352.17
2018-04-06T14:33:19.820Z,100355.99
2018-04-06T14:35:47.236Z,100353.66
2018-04-06T14:38:14.799Z,100350.80
2018-04-06T14:40:43.409Z,100348.29
2018-04-06T14:43:10.922Z,100349.66
2018-04-06T14:45:38.300Z,100352.42
2018-04-06T14:48:05.982Z,100345.27
2018-04-06T14:50:34.407Z,100347.08
2018-04-06T14:53:01.809Z,100337.38
2018-04-06T14:55:32.556Z,100340.00
2018-04-06T14:58:04.660Z,100337.84
2018-04-06T15:00:32.184Z,100325.56
2018-04-06T15:02:59.586Z,100321.05
2018-04-06T15:05:27.078Z,100319.78
2018-04-06T15:07:54.490Z,100327.83
2018-04-06T15:10:21.896Z,100320.72
2018-04-06T15:12:49.305Z,100315.44
2018-04-06T15:15:16.710Z,100316.56
2018-04-06T15:17:44.573Z,100309.93
2018-04-06T15:20:11.971Z,100308.02
2018-04-06T15:22:39.378Z,100309.98
2018-04-06T15:25:06.911Z,100309.98
2018-04-06T15:27:34.306Z,100306.84
2018-04-06T15:30:01.695Z,100308.72
2018-04-06T15:32:29.127Z,100294.05
2018-04-06T15:34:56.533Z,100293.06
2018-04-06T15:37:23.949Z,100296.34
2018-04-06T15:39:51.495Z,100290.22
2018-04-06T15:42:18.938Z,100292.29
2018-04-06T15:44:56.744Z,100285.31
2018-04-06T15:47:25.349Z,100286.48
2018-04-06T15:49:52.773Z,100285.69
2018-04-06T15:52:20.209Z,100275.69
2018-04-06T15:54:47.634Z,100279.23
2018-04-06T15:57:15.075Z,100275.51
2018-04-06T15:59:42.637Z,100284.31
2018-04-06T16:02:10.061Z,100276.31
2018-04-06T16:04:37.460Z,100273.14
2018-04-06T16:07:04.913Z,100268.49
2018-04-06T16:09:32.576Z,100265.66
2018-04-06T16:12:00.017Z,100266.88
2018-04-06T16:14:27.427Z,100267.05
2018-04-06T16:16:54.852Z,100263.02
2018-04-06T16:19:22.236Z,100258.92
2018-04-06T16:21:49.627Z,100263.23
2018-04-06T16:24:17.041Z,100257.66
2018-04-06T16:26:44.698Z,100254.84
2018-04-06T16:29:12.140Z,100255.00
2018-04-06T16:31:39.525Z,100259.09
2018-04-06T16:34:07.042Z,100260.86
2018-04-06T16:36:34.423Z,100260.52
2018-04-06T16:39:01.873Z,100260.84
2018-04-06T16:41:29.258Z,100263.63
2018-04-06T16:43:56.662Z,100259.02
2018-04-06T16:46:24.142Z,100257.33
2018-04-06T16:48:51.511Z,100250.66
2018-04-06T16:51:18.908Z,100248.92
2018-04-06T16:53:46.352Z,100250.53
2018-04-06T16:56:13.843Z,100248.97
2018-04-06T16:58:41.324Z,100242.00
2018-04-06T17:01:08.648Z,100246.80
2018-04-06T17:03:36.049Z,100242.64
2018-04-06T17:06:03.481Z,100248.33
2018-04-06T17:08:31.238Z,100241.44
2018-04-06T17:10:58.634Z,100236.21
2018-04-06T17:13:26.165Z,100237.44
2018-04-06T17:15:53.575Z,100235.84
2018-04-06T17:18:21.190Z,100235.31
2018-04-06T17:20:48.611Z,100233.67
2018-04-06T17:23:16.013Z,100240.53
2018-04-06T17:25:43.966Z,100238.34
2018-04-06T17:28:11.358Z,100238.30
2018-04-06T17:30:38.888Z,100239.15
2018-04-06T17:33:06.353Z,100240.78
2018-04-06T17:35:33.745Z,100237.20
2018-04-06T17:38:01.128Z,100239.17
2018-04-06T17:40:28.517Z,100243.58
2018-04-06T17:42:55.997Z,100238.48
2018-04-06T17:45:23.397Z,100235.84
2018-04-06T17:47:50.913Z,100239.31
2018-04-06T17:50:18.302Z,100240.49
2018-04-06T17:52:45.695Z,100242.77
2018-04-06T17:55:13.099Z,100249.98
2018-04-06T17:57:40.502Z,100239.11
2018-04-06T18:00:08.053Z,100244.70
2018-04-06T18:02:35.474Z,100245.08
2018-04-06T18:05:02.860Z,100250.98
2018-04-06T18:07:30.252Z,100248.89
2018-04-06T18:09:57.880Z,100251.69
2018-04-06T18:12:25.524Z,100249.97
2018-04-06T18:14:52.947Z,100252.62
2018-04-06T18:17:20.358Z,100255.95
2018-04-06T18:19:47.738Z,100255.80
2018-04-06T18:22:15.137Z,100264.13
2018-04-06T18:24:42.616Z,100258.80
2018-04-06T18:27:13.988Z,100259.54
2018-04-06T18:29:41.394Z,100258.57
2018-04-06T18:32:08.796Z,100263.58
2018-04-06T18:34:36.285Z,100265.25
2018-04-06T18:37:03.730Z,100272.03
2018-04-06T18:39:31.129Z,100268.48
2018-04-06T18:41:58.538Z,100276.00
2018-04-06T18:44:26.178Z,100272.25
2018-04-06T18:46:53.563Z,100264.98
2018-04-06T18:49:21.017Z,100276.48
2018-04-06T18:51:48.423Z,100273.84
2018-04-06T18:54:15.825Z,100274.55
2018-04-06T18:56:43.257Z,100272.72
2018-04-06T18:59:14.158Z,100266.70
2018-04-06T19:01:46.580Z,100273.18
2018-04-06T19:04:14.431Z,100267.97
2018-04-06T19:06:41.824Z,100271.59
2018-04-06T19:09:10.188Z,100264.36
2018-04-06T19:11:37.603Z,100258.08
2018-04-06T19:14:05.130Z,100255.29
2018-04-06T19:16:32.614Z,100256.20
2018-04-06T19:19:00.218Z,100256.55
2018-04-06T19:21:27.671Z,100249.48
2018-04-06T19:23:55.074Z,100253.10
2018-04-06T19:26:22.453Z,100249.16
2018-04-06T19:28:49.892Z,100249.98
2018-04-06T19:31:20.189Z,100246.75
2018-04-06T19:33:47.576Z,100244.02
2018-04-06T19:36:15.066Z,100245.70
2018-04-06T19:38:42.574Z,100242.62
2018-04-06T19:41:09.997Z,100244.02
2018-04-06T19:43:37.454Z,100246.77
2018-04-06T19:46:04.865Z,100249.70
2018-04-06T19:48:32.260Z,100252.85
2018-04-06T19:50:59.654Z,100244.70
2018-04-06T19:53:27.050Z,100243.45
2018-04-06T19:55:54.584Z,100247.48
2018-04-06T19:58:21.985Z,100242.80
2018-04-06T20:00:49.372Z,100242.93
2018-04-06T20:03:16.841Z,100239.61
2018-04-06T20:05:44.226Z,100244.17
2018-04-06T20:08:11.606Z,100245.91
2018-04-06T20:10:39.015Z,100234.75
2018-04-06T20:13:06.375Z,100241.36
2018-04-06T20:15:33.760Z,100237.16
2018-04-06T20:18:01.173Z,100228.66
2018-04-06T20:20:28.749Z,100229.63
2018-04-06T20:22:56.166Z,100231.84
2018-04-06T20:25:23.669Z,100231.09
2018-04-06T20:27:51.124Z,100223.69
2018-04-06T20:30:18.501Z,100224.20
2018-04-06T20:32:46.113Z,100225.74
2018-04-06T20:35:13.746Z,100224.38
2018-04-06T20:37:41.162Z,100218.54
2018-04-06T20:40:08.542Z,100220.52
2018-04-06T20:42:35.951Z,100216.48
2018-04-06T20:45:03.337Z,100214.78
2018-04-06T20:47:30.718Z,100206.14
2018-04-06T20:49:58.142Z,100206.43
2018-04-06T20:52:25.539Z,100207.41
2018-04-06T20:54:53.578Z,100199.27
2018-04-06T20:57:20.970Z,100200.98
2018-04-06T20:59:48.399Z,100197.05
2018-04-06T21:02:15.837Z,100207.48
2018-04-06T21:04:43.287Z,100199.74
2018-04-06T21:07:10.679Z,100194.72
2018-04-06T21:09:38.317Z,100193.13
2018-04-06T21:12:05.731Z,100197.80
2018-04-06T21:14:34.236Z,100201.08
2018-04-06T21:17:01.602Z,100196.76
2018-04-06T21:19:29.001Z,100187.53
2018-04-06T21:21:56.404Z,100193.09
2018-04-06T21:24:23.789Z,100183.12
2018-04-06T21:26:51.187Z,100181.02
2018-04-06T21:29:18.587Z,100175.89
2018-04-06T21:31:45.976Z,100169.14
2018-04-06T21:34:13.365Z,100169.28
2018-04-06T21:36:40.804Z,100161.67
2018-04-06T21:39:08.133Z,100165.90
2018-04-06T21:41:35.545Z,100166.61
2018-04-06T21:44:02.921Z,100157.39
2018-04-06T21:46:30.331Z,100163.78
2018-04-06T21:48:57.738Z,100160.20
2018-04-06T21:51:25.135Z,100163.23
2018-04-06T21:53:52.526Z,100165.86
2018-04-06T21:56:20.598Z,100158.59
2018-04-06T21:58:48.301Z,100158.83
2018-04-06T22:01:15.712Z,100158.55
2018-04-06T22:03:43.095Z,100154.88
2018-04-06T22:06:10.490Z,100156.23
2018-04-06T22:08:37.860Z,100144.42
2018-04-06T22:11:06.555Z,100143.97
2018-04-06T22:13:33.933Z,100144.71
2018-04-06T22:16:01.697Z,100143.05
2018-04-06T22:18:29.245Z,100138.70
2018-04-06T22:20:56.637Z,100144.11
2018-04-06T22:23:24.028Z,100135.19
2018-04-06T22:25:51.414Z,100139.94
2018-04-06T22:28:18.822Z,100137.16
2018-04-06T22:30:46.230Z,100132.69
2018-04-06T22:33:13.634Z,100124.63
2018-04-06T22:35:41.020Z,100123.47
2018-04-06T22:38:08.511Z,100129.44
2018-04-06T22:40:38.575Z,100128.97
2018-04-06T22:43:14.964Z,100129.55
2018-04-06T22:45:42.353Z,100133.13
2018-04-06T22:48:09.751Z,100130.99
2018-04-06T22:50:37.137Z,100130.56
2018-04-06T22:53:04.593Z,100132.39
2018-04-06T22:55:31.946Z,100136.71
2018-04-06T22:57:59.327Z,100133.55
2018-04-06T23:00:26.721Z,100122.40
2018-04-06T23:02:54.100Z,100121.64
2018-04-06T23:05:21.572Z,100127.27
2018-04-06T23:07:49.081Z,100119.19
2018-04-06T23:10:16.473Z,100113.44
2018-04-06T23:12:43.867Z,100119.34
2018-04-06T23:15:11.397Z,100112.52
2018-04-06T23:17:38.822Z,100113.00
2018-04-06T23:20:06.232Z,100108.53
2018-04-06T23:22:33.624Z,100109.15
2018-04-06T23:25:01.059Z,100111.34
2018-04-06T23:27:28.438Z,100117.70
2018-04-06T23:29:55.864Z,100116.53
2018-04-06T23:32:23.241Z,100111.66
2018-04-06T23:34:50.647Z,100117.47
2018-04-06T23:37:18.944Z,100114.07
2018-04-06T23:39:46.342Z,100108.41
2018-04-06T23:42:13.714Z,100101.48
2018-04-06T23:44:41.152Z,100101.41
2018-04-06T23:47:08.558Z,100109.55
2018-04-06T23:49:35.945Z,100100.88
2018-04-06T23:52:03.344Z,100098.09
2018-04-06T23:54:30.750Z,100098.48
2018-04-06T23:56:58.129Z,100093.36
2018-04-06T23:59:26.953Z,100095.12
